Doutor Pedrinho, Brazil
Current Conditions -  °F | °C
As of 8:00 AM on Monday 22 Dec 2014 (Local Time) from SBNF Reporting Station
Moderate Rain Moderate Rain  
Wind Chill: 75°   Ceiling: 1100
Heat Index: 75°   Visibility: 2.5mi
Dew Point: 75°   Wind: 10mph
Humidity: 100%   Direction: 140°SE
Pressure: 29.77"   Gusts: NA
Location:  26.72°S, 49.48°W
Report Text: SBNF 221000Z 14009KT 4000 RA SCT005 BKN011 24/24 Q1008
Loading
Personal Weather Stations






























Interactive Weather Map New forecast layout! Learn more

10-Day Weather Forecast

Advertisements
Track Severe Weather on mobile